Time;durP1;ratioP1;P1;durP2;ratioP2;P2;SDS_P1;SDS_P2;PMS_P1;PMS_P2;Temp;Humidity;BMP_temperature;BMP_pressure;BME280_temperature;BME280_humidity;BME280_pressure;Samples;Min_cycle;Max_cycle;Signal;HPM_P1;HPM_P2
2023/10/29 00:01:28;;;;;;;2.90;0.70;;;;;;;11.99;100.00;99078.47;5090146;28;20048;-35
2023/10/29 00:03:53;;;;;;;1.70;0.70;;;;;;;12.07;100.00;99086.81;5089932;28;20341;-35
2023/10/29 00:06:19;;;;;;;2.25;0.82;;;;;;;12.09;100.00;99078.38;5089930;28;20444;-35
2023/10/29 00:08:44;;;;;;;2.43;0.77;;;;;;;12.11;100.00;99082.44;5081310;28;20020;-35
2023/10/29 00:11:12;;;;;;;2.93;1.20;;;;;;;12.16;100.00;99086.19;5076971;28;20108;-35
2023/10/29 00:13:37;;;;;;;1.90;0.80;;;;;;;12.20;100.00;99084.50;5076569;28;20282;-35
2023/10/29 00:16:02;;;;;;;1.50;0.63;;;;;;;12.23;100.00;99073.94;5076258;28;20020;-35
2023/10/29 00:18:28;;;;;;;1.63;0.70;;;;;;;12.23;100.00;99071.22;5076183;28;20099;-35
2023/10/29 00:20:53;;;;;;;3.03;1.10;;;;;;;12.22;100.00;99066.09;5076308;28;20016;-35
2023/10/29 00:23:18;;;;;;;2.40;0.83;;;;;;;12.26;100.00;99067.94;5076130;28;20274;-35
2023/10/29 00:25:44;;;;;;;3.07;0.80;;;;;;;12.20;100.00;99033.03;5076664;28;20766;-35
2023/10/29 00:28:11;;;;;;;2.35;0.60;;;;;;;12.26;100.00;99034.63;5076061;28;20452;-35
2023/10/29 00:30:37;;;;;;;1.05;0.60;;;;;;;12.30;100.00;99024.84;5076547;28;20055;-35
2023/10/29 00:33:02;;;;;;;1.23;0.45;;;;;;;12.29;100.00;99023.19;5076009;28;20099;-35
2023/10/29 00:35:28;;;;;;;2.13;0.88;;;;;;;12.24;100.00;99015.13;5075893;28;20036;-35
2023/10/29 00:37:53;;;;;;;2.60;0.90;;;;;;;12.31;100.00;99037.28;5075995;28;20032;-35
2023/10/29 00:40:18;;;;;;;1.42;0.80;;;;;;;12.27;100.00;99030.81;5076663;28;20028;-35
2023/10/29 00:42:44;;;;;;;2.10;0.70;;;;;;;12.24;100.00;99026.75;5075824;28;20012;-35
2023/10/29 00:45:09;;;;;;;4.10;0.95;;;;;;;12.29;100.00;99025.91;5075928;28;20251;-35
2023/10/29 00:47:35;;;;;;;2.53;0.77;;;;;;;12.31;100.00;99029.16;5075629;28;20120;-35
2023/10/29 00:50:02;;;;;;;3.15;0.80;;;;;;;12.27;100.00;99030.81;5076170;28;20381;-35
2023/10/29 00:52:28;;;;;;;4.78;1.23;;;;;;;12.28;100.00;99030.50;5075458;28;20051;-35
2023/10/29 00:54:54;;;;;;;5.53;0.80;;;;;;;12.32;100.00;99028.84;5075837;28;20024;-35
2023/10/29 00:57:19;;;;;;;3.53;1.90;;;;;;;12.35;100.00;99030.19;5075739;28;20123;-35
2023/10/29 00:59:45;;;;;;;3.60;0.75;;;;;;;12.24;100.00;99005.06;5074503;28;20445;-35
2023/10/29 01:02:10;;;;;;;3.33;1.00;;;;;;;12.35;100.00;99017.44;5075579;28;20410;-35
2023/10/29 01:04:36;;;;;;;2.45;0.80;;;;;;;12.38;100.00;99014.16;5075117;28;20078;-35
2023/10/29 01:07:02;;;;;;;2.42;0.70;;;;;;;12.39;100.00;99009.53;5076059;28;20356;-35
2023/10/29 01:09:29;;;;;;;2.45;0.93;;;;;;;12.40;100.00;99003.03;5075509;28;20024;-35
2023/10/29 01:11:54;;;;;;;1.67;0.77;;;;;;;12.52;100.00;99000.72;5075982;28;20024;-35
2023/10/29 01:14:20;;;;;;;3.87;0.80;;;;;;;12.57;100.00;98997.16;5075891;28;20063;-35
2023/10/29 01:16:45;;;;;;;1.77;0.60;;;;;;;12.56;100.00;98995.53;5074749;28;20416;-35
2023/10/29 01:19:10;;;;;;;4.13;1.63;;;;;;;12.57;100.00;98984.38;5074683;28;20297;-35
2023/10/29 01:21:36;;;;;;;1.15;0.55;;;;;;;12.57;100.00;98981.69;5074927;28;20255;-35
2023/10/29 01:24:02;;;;;;;2.05;0.70;;;;;;;12.54;100.00;98974.16;5074914;28;20395;-35
2023/10/29 01:26:27;;;;;;;2.67;0.77;;;;;;;12.62;100.00;98968.06;5075436;28;20430;-34
2023/10/29 01:28:53;;;;;;;2.25;0.80;;;;;;;12.65;100.00;98965.88;5074840;28;20016;-34
2023/10/29 01:31:18;;;;;;;1.52;0.77;;;;;;;12.61;100.00;98961.03;5075075;28;20402;-34
2023/10/29 01:33:43;;;;;;;2.27;0.70;;;;;;;12.66;100.00;98975.63;5074538;28;20094;-34
2023/10/29 01:36:09;;;;;;;2.40;0.80;;;;;;;12.73;100.00;98978.78;5074935;28;20028;-34
2023/10/29 01:38:34;;;;;;;1.75;0.60;;;;;;;12.67;100.00;98972.63;5074675;28;20432;-34
2023/10/29 01:41:00;;;;;;;5.07;0.77;;;;;;;12.69;100.00;98973.16;5074326;28;20064;-34
2023/10/29 01:43:26;;;;;;;1.30;0.60;;;;;;;12.74;100.00;98972.28;5074229;28;20031;-34
2023/10/29 01:45:51;;;;;;;2.15;0.80;;;;;;;12.73;100.00;98967.94;5074181;28;20025;-34
2023/10/29 01:48:17;;;;;;;3.40;1.13;;;;;;;12.75;100.00;98971.97;5074449;28;20103;-34
2023/10/29 01:50:43;;;;;;;1.50;0.77;;;;;;;12.68;100.00;98955.25;5074699;28;20054;-34
2023/10/29 01:53:08;;;;;;;;;;;;;;;12.73;100.00;98955.19;5074499;28;20025;-34
2023/10/29 01:55:37;;;;;;;2.10;0.50;;;;;;;12.72;100.00;98966.31;5075152;28;20295;-36
2023/10/29 01:58:03;;;;;;;1.77;0.68;;;;;;;12.70;100.00;98965.81;5075104;28;20059;-34
2023/10/29 02:00:29;;;;;;;1.85;0.65;;;;;;;12.65;100.00;98960.47;5074580;28;20028;-34
2023/10/29 02:02:54;;;;;;;0.98;0.60;;;;;;;12.69;100.00;98967.72;5074240;28;20448;-34
2023/10/29 02:05:19;;;;;;;1.63;0.75;;;;;;;12.68;100.00;98968.00;5074700;28;20027;-34
2023/10/29 02:07:45;;;;;;;2.63;0.60;;;;;;;12.68;100.00;98962.56;5073828;28;20112;-34
2023/10/29 02:10:10;;;;;;;1.00;0.50;;;;;;;12.68;100.00;98968.00;5074012;28;20345;-34
2023/10/29 02:12:36;;;;;;;2.85;0.60;;;;;;;12.69;100.00;98969.59;5074566;28;20056;-35
2023/10/29 02:15:02;;;;;;;;;;;;;;;12.69;100.00;98970.44;5074416;28;20024;-35
2023/10/29 02:17:27;;;;;;;2.38;0.65;;;;;;;12.69;100.00;98969.59;5073802;28;20348;-35
2023/10/29 02:19:55;;;;;;;1.30;0.73;;;;;;;12.70;100.00;98968.53;5073923;28;20031;-35
2023/10/29 02:22:21;;;;;;;2.35;1.20;;;;;;;12.68;100.00;98954.44;5073575;28;20258;-35
2023/10/29 02:24:47;;;;;;;0.80;0.50;;;;;;;12.68;100.00;98966.09;5073481;28;20033;-35
2023/10/29 02:27:12;;;;;;;2.03;0.80;;;;;;;12.63;100.00;98958.03;5074152;28;20082;-35
2023/10/29 02:29:37;;;;;;;1.15;0.60;;;;;;;12.70;100.00;98958.50;5073828;28;20020;-35
2023/10/29 02:32:03;;;;;;;1.48;0.60;;;;;;;12.63;100.00;98955.31;5074391;28;20025;-35
2023/10/29 02:34:28;;;;;;;3.33;0.82;;;;;;;12.68;100.00;98971.50;5074025;28;20158;-35
2023/10/29 02:36:54;;;;;;;2.25;0.68;;;;;;;12.70;100.00;98972.06;5073927;28;20574;-35
2023/10/29 02:39:19;;;;;;;2.75;0.60;;;;;;;12.66;100.00;98946.59;5073629;28;20100;-35
2023/10/29 02:41:44;;;;;;;1.00;0.50;;;;;;;12.72;100.00;98967.13;5073385;28;20025;-35
2023/10/29 02:44:10;;;;;;;1.50;0.70;;;;;;;12.73;100.00;98960.59;5073359;28;20020;-35
2023/10/29 02:46:36;;;;;;;2.28;0.80;;;;;;;12.71;100.00;98962.81;5073274;28;20263;-35
2023/10/29 02:49:02;;;;;;;2.67;0.63;;;;;;;12.70;100.00;98960.41;5073504;28;20029;-35
2023/10/29 02:51:27;;;;;;;1.73;0.60;;;;;;;12.68;100.00;98957.16;5073354;28;20035;-35
2023/10/29 02:53:52;;;;;;;3.42;0.88;;;;;;;12.65;100.00;98950.41;5073834;28;20403;-35
2023/10/29 02:56:18;;;;;;;1.43;0.50;;;;;;;12.69;100.00;98954.16;5071792;28;20052;-35
2023/10/29 02:58:43;;;;;;;2.03;0.40;;;;;;;12.71;100.00;98957.38;5073577;28;20279;-35
2023/10/29 03:01:09;;;;;;;1.90;0.60;;;;;;;12.74;100.00;98954.09;5073738;28;20354;-35
2023/10/29 03:03:37;;;;;;;1.40;0.50;;;;;;;12.76;100.00;98956.50;5073062;28;20025;-35
2023/10/29 03:06:06;;;;;;;1.70;0.60;;;;;;;12.73;100.00;98947.03;5073974;28;20360;-35
2023/10/29 03:08:32;;;;;;;1.67;0.60;;;;;;;12.79;100.00;98943.19;5073348;28;20024;-35
2023/10/29 03:10:59;;;;;;;2.00;0.50;;;;;;;12.79;100.00;98942.38;5073337;28;20028;-35
2023/10/29 03:13:24;;;;;;;1.25;0.55;;;;;;;12.83;100.00;98935.25;5074162;28;20483;-36
2023/10/29 03:15:50;;;;;;;1.77;0.73;;;;;;;12.84;100.00;98943.13;5073079;28;20017;-36
2023/10/29 03:18:15;;;;;;;2.38;0.57;;;;;;;12.85;100.00;98949.34;5073507;28;20025;-35
2023/10/29 03:20:41;;;;;;;2.42;0.50;;;;;;;12.87;100.00;98947.13;5074045;28;20028;-35
2023/10/29 03:23:07;;;;;;;1.40;0.68;;;;;;;12.86;100.00;98945.53;5073238;28;20365;-35
2023/10/29 03:25:34;;;;;;;2.60;1.08;;;;;;;12.90;100.00;98957.41;5074036;28;20035;-35
2023/10/29 03:27:59;;;;;;;2.65;0.70;;;;;;;12.91;100.00;98959.03;5073687;28;20367;-35
2023/10/29 03:30:25;;;;;;;2.00;0.57;;;;;;;12.95;100.00;98960.06;5073793;28;20021;-36
2023/10/29 03:32:50;;;;;;;1.53;0.57;;;;;;;12.97;100.00;98951.63;5073159;28;20115;-35
2023/10/29 03:35:15;;;;;;;3.30;0.70;;;;;;;12.99;100.00;98952.16;5073762;28;20056;-35
2023/10/29 03:37:41;;;;;;;2.67;0.60;;;;;;;12.95;100.00;98946.50;5073003;28;20029;-35
2023/10/29 03:40:07;;;;;;;2.13;0.43;;;;;;;12.86;100.00;98929.25;5073377;28;20032;-35
2023/10/29 03:42:33;;;;;;;;;;;;;;;13.04;100.00;98962.94;5074010;28;20051;-36
2023/10/29 03:44:58;;;;;;;2.25;0.57;;;;;;;12.91;100.00;98947.38;5076879;28;20347;-36
2023/10/29 03:47:24;;;;;;;1.65;0.60;;;;;;;12.99;100.00;98949.44;5076802;28;20060;-36
2023/10/29 03:49:49;;;;;;;2.90;0.60;;;;;;;12.98;100.00;98943.19;5076730;28;20452;-35
2023/10/29 03:52:14;;;;;;;1.77;0.40;;;;;;;12.99;100.00;98944.00;5076734;28;20028;-35
2023/10/29 03:54:40;;;;;;;1.90;0.50;;;;;;;13.01;100.00;98942.59;5076633;28;20039;-36
2023/10/29 03:57:05;;;;;;;1.27;0.47;;;;;;;12.95;100.00;98935.63;5077135;28;20089;-36
2023/10/29 03:59:31;;;;;;;1.75;0.60;;;;;;;12.93;100.00;98940.53;5077144;28;20368;-35
2023/10/29 04:01:56;;;;;;;1.48;0.50;;;;;;;12.88;100.00;98940.59;5076849;28;20047;-35
2023/10/29 04:04:22;;;;;;;2.50;0.70;;;;;;;12.81;100.00;98932.84;5076455;28;20368;-35
2023/10/29 04:06:47;;;;;;;1.23;0.50;;;;;;;12.78;100.00;98944.25;5076128;28;20028;-35
2023/10/29 04:09:12;;;;;;;1.73;0.50;;;;;;;12.75;100.00;98944.84;5076078;28;20016;-35
2023/10/29 04:11:38;;;;;;;2.37;0.77;;;;;;;12.75;100.00;98952.19;5076612;28;20025;-35
2023/10/29 04:14:04;;;;;;;1.35;0.60;;;;;;;12.78;100.00;98974.09;5075937;28;20273;-35
2023/10/29 04:16:29;;;;;;;1.25;0.45;;;;;;;12.71;100.00;98953.88;5076485;28;20024;-35
2023/10/29 04:18:54;;;;;;;1.75;0.40;;;;;;;12.77;100.00;98958.13;5076212;28;20063;-35
2023/10/29 04:21:20;;;;;;;2.87;0.53;;;;;;;12.72;100.00;98974.47;5076002;28;20039;-35
2023/10/29 04:23:45;;;;;;;1.98;0.60;;;;;;;12.85;100.00;98982.69;5076708;28;20346;-35
2023/10/29 04:26:10;;;;;;;1.77;0.52;;;;;;;12.88;100.00;98975.88;5075694;28;20024;-35
2023/10/29 04:28:36;;;;;;;2.30;0.70;;;;;;;12.86;100.00;98988.94;5076020;28;20118;-35
2023/10/29 04:31:02;;;;;;;1.75;0.50;;;;;;;12.86;100.00;98984.31;5076287;28;20718;-35
2023/10/29 04:33:28;;;;;;;2.13;0.65;;;;;;;12.85;100.00;98974.56;5075624;28;20529;-35
2023/10/29 04:35:53;;;;;;;3.38;0.60;;;;;;;12.85;100.00;98990.03;5076493;28;20032;-35
2023/10/29 04:38:19;;;;;;;1.27;0.40;;;;;;;12.80;100.00;98977.34;5075736;28;20021;-35
2023/10/29 04:40:44;;;;;;;1.45;0.73;;;;;;;12.87;100.00;98994.06;5075847;28;20027;-35
2023/10/29 04:43:10;;;;;;;4.65;1.13;;;;;;;12.87;100.00;98974.25;5076311;28;20029;-36
2023/10/29 04:45:35;;;;;;;1.77;0.70;;;;;;;12.86;100.00;98964.50;5075742;28;20020;-35
2023/10/29 04:48:01;;;;;;;2.43;0.70;;;;;;;12.78;100.00;98967.88;5075740;28;20461;-35
2023/10/29 04:50:26;;;;;;;2.57;0.97;;;;;;;12.79;100.00;98980.34;5075915;28;20265;-35
2023/10/29 04:52:51;;;;;;;2.53;0.90;;;;;;;12.77;100.00;98988.75;5075627;28;20368;-35
2023/10/29 04:55:16;;;;;;;2.40;0.60;;;;;;;12.74;100.00;98978.50;5076007;28;20035;-35
2023/10/29 04:57:42;;;;;;;3.20;0.73;;;;;;;12.73;100.00;98990.44;5075689;28;20041;-35
2023/10/29 05:00:08;;;;;;;2.03;0.70;;;;;;;12.69;100.00;98977.75;5075283;28;20016;-35
2023/10/29 05:02:35;;;;;;;5.47;0.95;;;;;;;12.72;100.00;98988.81;5075053;28;20427;-36
2023/10/29 05:05:01;;;;;;;3.85;0.90;;;;;;;12.71;100.00;99008.09;5075355;28;20029;-36
2023/10/29 05:07:26;;;;;;;3.40;0.95;;;;;;;12.66;100.00;99021.72;5075569;28;20065;-35
2023/10/29 05:09:51;;;;;;;4.33;1.00;;;;;;;12.58;100.00;99034.81;5075338;28;20059;-35
2023/10/29 05:12:17;;;;;;;5.15;0.90;;;;;;;12.35;100.00;99030.19;5075301;28;20020;-35
2023/10/29 05:14:42;;;;;;;5.53;0.97;;;;;;;12.02;100.00;98983.91;5074919;28;20024;-35
2023/10/29 05:17:07;;;;;;;2.07;0.60;;;;;;;11.95;100.00;98996.16;5074848;28;20271;-35
2023/10/29 05:19:33;;;;;;;3.23;0.60;;;;;;;11.90;100.00;99015.16;5075102;28;20278;-35
2023/10/29 05:21:58;;;;;;;2.47;0.60;;;;;;;11.87;100.00;99004.91;5075289;28;20251;-35
2023/10/29 05:24:23;;;;;;;1.63;0.60;;;;;;;11.87;100.00;99008.41;5075738;28;20496;-35
2023/10/29 05:26:49;;;;;;;2.10;0.70;;;;;;;11.76;100.00;98993.28;5075265;28;20024;-35
2023/10/29 05:29:14;;;;;;;2.75;0.63;;;;;;;11.74;100.00;99001.72;5074628;28;20095;-35
2023/10/29 05:31:40;;;;;;;3.10;0.70;;;;;;;11.77;100.00;99001.16;5075395;28;20410;-35
2023/10/29 05:34:05;;;;;;;2.25;0.60;;;;;;;11.69;100.00;99009.88;5075238;28;20021;-35
2023/10/29 05:36:31;;;;;;;5.00;0.70;;;;;;;11.75;100.00;99016.84;5074994;28;20021;-35
2023/10/29 05:38:57;;;;;;;;;;;;;;;11.77;100.00;99016.59;5075319;28;20028;-35
2023/10/29 05:41:22;;;;;;;1.50;0.57;;;;;;;11.73;100.00;99020.97;5075448;28;20236;-35
2023/10/29 05:43:47;;;;;;;2.05;0.68;;;;;;;11.69;100.00;99038.84;5074779;28;20017;-35
2023/10/29 05:46:14;;;;;;;2.42;0.60;;;;;;;11.69;100.00;99049.69;5075091;28;20111;-35
2023/10/29 05:48:40;;;;;;;2.88;1.33;;;;;;;11.66;100.00;99061.06;5074413;28;20028;-35
2023/10/29 05:51:06;;;;;;;1.33;0.60;;;;;;;11.69;100.00;99057.81;5074233;28;20089;-35
2023/10/29 05:53:31;;;;;;;3.03;0.88;;;;;;;11.67;100.00;99063.50;5074118;28;20360;-35
2023/10/29 05:55:56;;;;;;;2.03;0.57;;;;;;;11.63;100.00;99054.34;5074440;28;20024;-35
2023/10/29 05:58:26;;;;;;;3.97;0.50;;;;;;;11.63;100.00;99069.78;5075212;28;20084;-36
2023/10/29 06:00:51;;;;;;;2.28;0.73;;;;;;;11.64;100.00;99071.38;5074187;28;20025;-35
2023/10/29 06:03:16;;;;;;;2.83;0.50;;;;;;;11.63;100.00;99086.00;5074478;28;20047;-35
2023/10/29 06:05:42;;;;;;;3.05;0.88;;;;;;;11.63;100.00;99094.13;5074313;28;20055;-35
2023/10/29 06:08:07;;;;;;;2.75;0.68;;;;;;;11.60;100.00;99090.88;5074909;28;20459;-35
2023/10/29 06:10:33;;;;;;;5.38;1.17;;;;;;;11.58;100.00;99109.31;5074621;28;20020;-35
2023/10/29 06:12:59;;;;;;;3.15;0.90;;;;;;;11.54;100.00;99102.84;5074279;28;20376;-36
2023/10/29 06:15:25;;;;;;;4.95;0.80;;;;;;;11.46;100.00;99095.28;5073981;28;20027;-35
2023/10/29 06:17:51;;;;;;;4.00;0.90;;;;;;;11.54;100.00;99115.56;5073582;28;20518;-35
2023/10/29 06:20:20;;;;;;;3.90;0.75;;;;;;;11.50;100.00;99109.09;5074284;28;20032;-36
2023/10/29 06:22:47;;;;;;;6.07;1.00;;;;;;;11.56;100.00;99119.59;5073845;28;20025;-35
2023/10/29 06:25:13;;;;;;;6.85;1.15;;;;;;;11.58;100.00;99132.88;5073835;28;20020;-35
2023/10/29 06:27:39;;;;;;;3.75;0.98;;;;;;;11.58;100.00;99132.88;5073459;28;20024;-35
2023/10/29 06:30:05;;;;;;;3.55;0.93;;;;;;;11.58;100.00;99124.75;5073521;28;20025;-35
2023/10/29 06:32:30;;;;;;;4.32;1.00;;;;;;;11.56;100.00;99129.63;5073759;28;20020;-36
2023/10/29 06:34:55;;;;;;;3.63;1.40;;;;;;;11.56;100.00;99130.44;5074564;28;20449;-35
2023/10/29 06:37:21;;;;;;;5.80;1.37;;;;;;;11.58;100.00;99132.88;5074220;28;20133;-35
2023/10/29 06:39:46;;;;;;;5.30;1.27;;;;;;;11.54;100.00;99139.94;5074237;28;20297;-35
2023/10/29 06:42:11;;;;;;;5.03;1.25;;;;;;;11.54;100.00;99139.94;5074036;28;20024;-35
2023/10/29 06:44:37;;;;;;;6.20;1.10;;;;;;;11.57;100.00;99152.91;5073647;28;20469;-35
2023/10/29 06:47:03;;;;;;;5.33;1.03;;;;;;;11.56;100.00;99154.78;5074135;28;20259;-35
2023/10/29 06:49:28;;;;;;;3.78;1.17;;;;;;;11.56;100.00;99156.69;5073525;28;20306;-35
2023/10/29 06:51:54;;;;;;;7.43;1.17;;;;;;;11.52;100.00;99161.88;5074417;28;20061;-35
2023/10/29 06:54:19;;;;;;;5.68;1.63;;;;;;;11.53;100.00;99163.47;5073443;28;20031;-35
2023/10/29 06:56:45;;;;;;;5.33;1.20;;;;;;;11.52;100.00;99172.69;5074153;28;20150;-35
2023/10/29 06:59:10;;;;;;;6.17;1.47;;;;;;;11.54;100.00;99184.06;5073995;28;20263;-35
2023/10/29 07:01:35;;;;;;;6.03;1.30;;;;;;;11.53;100.00;99185.16;5073523;28;20572;-35
2023/10/29 07:04:01;;;;;;;9.68;3.60;;;;;;;11.54;100.00;99194.88;5074191;28;20404;-35
2023/10/29 07:06:27;;;;;;;8.82;1.95;;;;;;;11.53;100.00;99184.34;5074239;28;20035;-36
2023/10/29 07:08:52;;;;;;;7.00;1.60;;;;;;;11.52;100.00;99193.56;5073074;28;20020;-35
2023/10/29 07:11:18;;;;;;;7.10;1.38;;;;;;;11.47;100.00;99197.09;5073413;28;20243;-36
2023/10/29 07:13:44;;;;;;;6.03;1.65;;;;;;;11.55;100.00;99210.03;5073906;28;20059;-36
2023/10/29 07:16:09;;;;;;;8.93;1.70;;;;;;;11.48;100.00;99203.31;5073531;28;20024;-35
2023/10/29 07:18:35;;;;;;;5.00;1.60;;;;;;;11.55;100.00;99218.16;5074470;28;20462;-35
2023/10/29 07:21:01;;;;;;;6.63;1.58;;;;;;;11.57;100.00;99218.69;5077297;28;20524;-35
2023/10/29 07:23:26;;;;;;;7.53;1.67;;;;;;;11.63;100.00;99219.47;5078052;28;20111;-35
2023/10/29 07:25:52;;;;;;;7.88;2.25;;;;;;;11.66;100.00;99218.91;5077310;28;20039;-35
2023/10/29 07:28:17;;;;;;;3.95;1.48;;;;;;;11.67;100.00;99225.16;5077206;28;20028;-35
2023/10/29 07:30:43;;;;;;;6.43;1.65;;;;;;;11.64;100.00;99228.41;5077143;28;20016;-36
2023/10/29 07:33:10;;;;;;;4.97;1.58;;;;;;;11.70;100.00;99222.69;5077077;28;20024;-36
2023/10/29 07:35:38;;;;;;;6.30;1.90;;;;;;;11.74;100.00;99250.84;5077623;28;20028;-35
2023/10/29 07:38:05;;;;;;;4.40;1.98;;;;;;;11.73;100.00;99251.94;5076935;28;20371;-35
2023/10/29 07:40:30;;;;;;;5.10;1.48;;;;;;;11.74;100.00;99250.03;5076863;28;20482;-35
2023/10/29 07:42:56;;;;;;;4.22;1.20;;;;;;;11.72;100.00;99236.78;5076545;28;20028;-35
2023/10/29 07:45:21;;;;;;;6.72;1.88;;;;;;;11.78;100.00;99240.28;5076588;28;20112;-35
2023/10/29 07:47:46;;;;;;;7.75;1.50;;;;;;;11.83;100.00;99254.63;5076797;28;20028;-35
2023/10/29 07:50:13;;;;;;;6.90;1.60;;;;;;;11.90;100.00;99253.50;5077335;28;20027;-35
2023/10/29 07:52:41;;;;;;;;;;;;;;;11.96;100.00;99263.25;5077105;28;20263;-35
2023/10/29 07:55:08;;;;;;;9.93;1.75;;;;;;;11.89;100.00;99247.28;5076715;28;20304;-36
2023/10/29 07:57:33;;;;;;;12.50;2.50;;;;;;;12.01;100.00;99255.09;5076971;28;20492;-36
2023/10/29 07:59:59;;;;;;;4.13;1.40;;;;;;;12.06;100.00;99249.66;5076395;28;20035;-36
2023/10/29 08:02:24;;;;;;;6.70;1.73;;;;;;;12.01;100.00;99247.78;5076533;28;20017;-36
2023/10/29 08:04:50;;;;;;;20.23;3.10;;;;;;;12.18;100.00;99262.84;5076213;28;20024;-36
2023/10/29 08:07:16;;;;;;;7.95;2.13;;;;;;;12.25;100.00;99266.88;5076686;28;20031;-35
2023/10/29 08:09:42;;;;;;;7.63;2.17;;;;;;;12.28;100.00;99260.06;5076171;28;20029;-35
2023/10/29 08:12:07;;;;;;;6.27;2.17;;;;;;;12.31;100.00;99264.94;5076453;28;20463;-35
2023/10/29 08:14:32;;;;;;;7.05;1.50;;;;;;;12.48;100.00;99292.47;5076343;28;20024;-35
2023/10/29 08:16:58;;;;;;;5.93;1.70;;;;;;;12.56;100.00;99291.06;5075906;28;20107;-35
2023/10/29 08:19:24;;;;;;;10.55;2.00;;;;;;;12.67;100.00;99297.22;5076157;28;20302;-36
2023/10/29 08:21:49;;;;;;;9.35;2.60;;;;;;;12.74;100.00;99305.88;5075916;28;20425;-36
2023/10/29 08:24:15;;;;;;;5.07;1.50;;;;;;;12.74;100.00;99295.03;5076286;28;20024;-36
2023/10/29 08:26:40;;;;;;;7.82;2.20;;;;;;;12.84;100.00;99311.22;5076276;28;20067;-35
2023/10/29 08:29:06;;;;;;;8.05;3.05;;;;;;;12.81;100.00;99309.06;5075552;28;20016;-35
2023/10/29 08:31:31;;;;;;;7.78;1.50;;;;;;;12.78;100.00;99315.03;5076469;28;20023;-35
2023/10/29 08:33:56;;;;;;;5.45;1.45;;;;;;;12.76;100.00;99303.69;5076198;28;20063;-35
2023/10/29 08:36:22;;;;;;;7.03;1.50;;;;;;;12.75;100.00;99307.50;5075828;28;20401;-36
2023/10/29 08:38:47;;;;;;;4.25;1.50;;;;;;;12.87;100.00;99316.06;5075794;28;20031;-35
2023/10/29 08:41:15;;;;;;;5.20;1.47;;;;;;;12.97;100.00;99307.84;5076675;28;20028;-36
2023/10/29 08:43:41;;;;;;;8.00;2.00;;;;;;;13.06;100.00;99313.47;5075708;28;20266;-36
2023/10/29 08:46:06;;;;;;;6.07;2.22;;;;;;;13.16;100.00;99318.81;5075671;28;20099;-35
2023/10/29 08:48:32;;;;;;;5.53;1.60;;;;;;;13.14;100.00;99316.41;5075894;28;20103;-35
2023/10/29 08:50:57;;;;;;;9.95;2.53;;;;;;;13.27;100.00;99323.06;5076422;28;20052;-35
2023/10/29 08:53:23;;;;;;;4.18;1.67;;;;;;;13.28;100.00;99329.34;5075242;28;20379;-36
2023/10/29 08:55:49;;;;;;;;;;;;;;;13.42;100.00;99343.88;5076485;28;20506;-36
2023/10/29 08:58:14;;;;;;;7.57;1.70;;;;;;;13.46;100.00;99350.31;5075848;28;19919;-36
2023/10/29 09:00:40;;;;;;;6.10;1.55;;;;;;;13.51;100.00;99347.56;5075528;28;20078;-35
2023/10/29 09:03:05;;;;;;;7.07;2.03;;;;;;;13.54;100.00;99349.72;5075894;28;20364;-36
2023/10/29 09:05:31;;;;;;;6.65;1.70;;;;;;;13.52;100.00;99349.19;5075290;28;20025;-36
2023/10/29 09:07:56;;;;;;;7.57;2.05;;;;;;;13.65;100.00;99359.38;5075283;28;20029;-35
2023/10/29 09:10:22;;;;;;;8.40;1.50;;;;;;;13.73;100.00;99371.53;5075538;28;20029;-35
2023/10/29 09:12:47;;;;;;;5.30;1.30;;;;;;;13.79;100.00;99392.09;5074987;28;20028;-35
2023/10/29 09:15:12;;;;;;;4.72;1.00;;;;;;;13.88;100.00;99395.00;5075711;28;20031;-35
2023/10/29 09:17:38;;;;;;;5.32;1.27;;;;;;;13.92;100.00;99379.75;5075240;28;20449;-36
2023/10/29 09:20:05;;;;;;;5.03;1.27;;;;;;;13.81;100.00;99392.66;5075441;28;20137;-35
2023/10/29 09:22:30;;;;;;;;;;;;;;;13.81;100.00;99389.09;5075934;28;20047;-35
2023/10/29 09:24:56;;;;;;;7.70;1.77;;;;;;;13.59;100.00;99384.97;5075760;28;19908;-35
2023/10/29 09:27:21;;;;;;;9.60;1.42;;;;;;;13.61;100.00;99395.53;5075434;28;20024;-35
2023/10/29 09:29:46;;;;;;;;;;;;;;;13.71;100.00;99394.63;5075270;28;20036;-36
2023/10/29 09:32:13;;;;;;;7.57;1.70;;;;;;;13.68;100.00;99385.16;5074503;28;19905;-35
2023/10/29 09:34:39;;;;;;;4.60;1.50;;;;;;;13.74;100.00;99377.78;5074396;28;20259;-35
2023/10/29 09:37:05;;;;;;;4.22;1.70;;;;;;;13.83;100.00;99393.16;5074683;28;20027;-35
2023/10/29 09:39:31;;;;;;;6.27;1.50;;;;;;;13.93;100.00;99392.25;5074346;28;20044;-35
2023/10/29 09:42:01;;;;;;;4.60;1.50;;;;;;;14.07;100.00;99386.94;5074010;28;20297;-35
2023/10/29 09:44:29;;;;;;;6.85;1.52;;;;;;;14.20;100.00;99390.84;5074834;28;20420;-35
2023/10/29 09:47:11;;;;;;;8.48;1.92;;;;;;;14.26;100.00;99412.25;5075086;28;20032;-35
2023/10/29 09:49:37;;;;;;;6.55;2.10;;;;;;;14.19;100.00;99387.31;5074707;28;20048;-35
2023/10/29 09:52:04;;;;;;;6.53;2.00;;;;;;;14.26;100.00;99392.41;5074485;28;20043;-35
2023/10/29 09:54:29;;;;;;;6.05;1.83;;;;;;;14.17;100.00;99398.50;5074320;28;20028;-35
2023/10/29 09:56:54;;;;;;;7.32;2.05;;;;;;;14.14;100.00;99400.97;5074344;28;20044;-35
2023/10/29 09:59:20;;;;;;;;;;;;;;;14.18;100.00;99410.16;5074779;28;20021;-36
2023/10/29 10:01:45;;;;;;;5.47;2.10;;;;;;;14.01;100.00;99399.78;5074294;28;19934;-35
2023/10/29 10:04:10;;;;;;;8.43;2.50;;;;;;;14.03;100.00;99389.41;5074473;28;20349;-36
2023/10/29 10:06:37;;;;;;;6.95;2.28;;;;;;;13.95;100.00;99376.44;5074692;28;20305;-35
2023/10/29 10:09:03;;;;;;;5.00;1.98;;;;;;;13.84;100.00;99372.22;5074030;28;20024;-35
2023/10/29 10:11:28;;;;;;;6.18;1.65;;;;;;;13.73;100.00;99368.00;5074067;28;20020;-36
2023/10/29 10:13:54;;;;;;;9.32;2.22;;;;;;;13.73;100.00;99360.66;5074082;28;20017;-35
2023/10/29 10:16:20;;;;;;;6.50;2.28;;;;;;;13.71;100.00;99372.91;5073673;28;20028;-36
2023/10/29 10:18:50;;;;;;;;;;;;;;;13.74;100.00;99384.00;5074354;28;20154;-35
2023/10/29 10:21:16;;;;;;;5.47;1.67;;;;;;;13.54;100.00;99360.56;5074177;28;20304;-35
2023/10/29 10:23:57;;;;;;;7.55;2.50;;;;;;;13.63;100.00;99375.16;5074171;28;20074;-35
2023/10/29 10:26:31;;;;;;;5.55;1.33;;;;;;;13.59;100.00;99370.59;5073540;28;20108;-35
2023/10/29 10:28:59;;;;;;;5.30;1.90;;;;;;;13.52;100.00;99361.97;5074248;28;20044;-36
2023/10/29 10:31:27;;;;;;;8.63;1.77;;;;;;;13.59;100.00;99371.38;5074555;28;20078;-35
2023/10/29 10:34:11;;;;;;;5.32;1.42;;;;;;;13.61;100.00;99380.06;5074245;28;20357;-36
2023/10/29 10:36:36;;;;;;;7.82;2.80;;;;;;;13.62;100.00;99383.59;5073586;28;20024;-35
2023/10/29 10:39:02;;;;;;;6.78;1.88;;;;;;;13.70;100.00;99388.41;5073871;28;20043;-35
2023/10/29 10:41:45;;;;;;;7.70;1.92;;;;;;;13.73;100.00;99378.88;5074327;28;20027;-36
2023/10/29 10:44:12;;;;;;;6.28;2.40;;;;;;;13.84;100.00;99391.25;5073821;28;20051;-36
2023/10/29 10:46:47;;;;;;;5.78;1.83;;;;;;;13.85;100.00;99395.56;5073542;28;20037;-36
2023/10/29 10:49:13;;;;;;;6.60;1.75;;;;;;;13.81;100.00;99400.81;5073735;28;20020;-36
2023/10/29 10:51:39;;;;;;;;;;;;;;;13.93;100.00;99410.47;5073887;28;20024;-36
2023/10/29 10:54:05;;;;;;;5.55;1.90;;;;;;;13.85;100.00;99417.31;5073445;28;19904;-36
2023/10/29 10:56:36;;;;;;;6.03;1.75;;;;;;;13.80;100.00;99415.47;5073169;28;20064;-35
2023/10/29 10:59:06;;;;;;;8.30;1.67;;;;;;;13.75;100.00;99412.78;5073733;28;20090;-35
2023/10/29 11:01:32;;;;;;;5.68;1.92;;;;;;;13.72;100.00;99410.66;5073464;28;20486;-35
2023/10/29 11:03:59;;;;;;;6.20;1.75;;;;;;;13.67;100.00;99409.91;5073407;28;20122;-36
2023/10/29 11:06:25;;;;;;;10.57;3.38;;;;;;;13.61;100.00;99393.63;5073695;28;20079;-36
2023/10/29 11:08:52;;;;;;;8.73;2.63;;;;;;;13.60;100.00;99389.31;5073312;28;20020;-36
2023/10/29 11:11:19;;;;;;;4.85;1.65;;;;;;;13.56;100.00;99387.44;5073330;28;20021;-36
2023/10/29 11:13:44;;;;;;;6.13;1.30;;;;;;;13.53;100.00;99394.28;5072938;28;20035;-35
2023/10/29 11:16:24;;;;;;;5.95;1.17;;;;;;;13.50;100.00;99385.88;5073902;28;20029;-36
2023/10/29 11:18:50;;;;;;;7.45;1.95;;;;;;;13.35;100.00;99365.91;5073834;28;20071;-36
2023/10/29 11:21:36;;;;;;;6.88;1.52;;;;;;;13.47;100.00;99378.28;5073850;28;20028;-36